CFG8C EDDF-LOWW
Flight info
| Callsign | CFG8C |
|---|---|
| Flight time | 1h 6m |
| Altitude | 31000 |
| Route | SULUS7S/18 SULUS Z650 VEMUT/N0441F290 DCT BUDEX BUDEX2W |
| Aircraft | A321/M-SDE3FGHIRWY/LB1 |
Departure
| Time | 2026-05-04 13:32 |
|---|---|
| Airport | Frankfurt Main Airport (EDDF) |
Arrival
| Time | 2026-05-04 14:38 |
|---|---|
| Airport | Vienna International Airport (LOWW) |
| Time | Latitude | Longitude | Altitude | Speed | Heading |
|---|---|---|---|---|---|
| 2026-05-04 12:50 | 50.03719 | 8.54219 | 349 ft | 0 kts | 160° |
| 2026-05-04 13:27 | 50.03718 | 8.54220 | 349 ft | 1 kts | 160° |
| 2026-05-04 13:28 | 50.03702 | 8.54229 | 354 ft | 4 kts | 160° |
| 2026-05-04 13:28 | 50.03671 | 8.54247 | 348 ft | 6 kts | 162° |
| 2026-05-04 13:28 | 50.03632 | 8.54211 | 350 ft | 10 kts | 244° |
| 2026-05-04 13:28 | 50.03605 | 8.54097 | 354 ft | 12 kts | 250° |
| 2026-05-04 13:29 | 50.03572 | 8.53960 | 352 ft | 15 kts | 250° |
| 2026-05-04 13:29 | 50.03534 | 8.53799 | 356 ft | 17 kts | 250° |
| 2026-05-04 13:29 | 50.03491 | 8.53619 | 350 ft | 19 kts | 250° |
| 2026-05-04 13:29 | 50.03444 | 8.53422 | 350 ft | 20 kts | 249° |
| 2026-05-04 13:30 | 50.03393 | 8.53211 | 344 ft | 22 kts | 249° |
| 2026-05-04 13:30 | 50.03337 | 8.52981 | 337 ft | 24 kts | 249° |
| 2026-05-04 13:30 | 50.03280 | 8.52742 | 339 ft | 16 kts | 250° |
| 2026-05-04 13:30 | 50.03262 | 8.52621 | 341 ft | 11 kts | 237° |
| 2026-05-04 13:31 | 50.03197 | 8.52594 | 338 ft | 9 kts | 179° |
| 2026-05-04 13:31 | 50.03072 | 8.52597 | 341 ft | 45 kts | 179° |
| 2026-05-04 13:31 | 50.02512 | 8.52603 | 341 ft | 113 kts | 180° |
| 2026-05-04 13:31 | 50.01531 | 8.52614 | 341 ft | 166 kts | 180° |
| 2026-05-04 13:32 | 50.00315 | 8.52646 | 782 ft | 180 kts | 179° |
| 2026-05-04 13:32 | 49.99029 | 8.52673 | 1522 ft | 186 kts | 182° |
| 2026-05-04 13:32 | 49.97721 | 8.52712 | 2171 ft | 194 kts | 177° |
| 2026-05-04 13:32 | 49.96411 | 8.53453 | 2634 ft | 214 kts | 148° |
| 2026-05-04 13:33 | 49.95421 | 8.55350 | 2765 ft | 247 kts | 117° |
| 2026-05-04 13:33 | 49.94720 | 8.57951 | 3011 ft | 268 kts | 115° |
| 2026-05-04 13:33 | 49.94000 | 8.60640 | 3590 ft | 270 kts | 111° |
| 2026-05-04 13:33 | 49.93474 | 8.63464 | 3846 ft | 274 kts | 102° |
| 2026-05-04 13:34 | 49.93364 | 8.66434 | 4001 ft | 277 kts | 91° |
| 2026-05-04 13:34 | 49.93224 | 8.68432 | 4016 ft | 275 kts | 107° |
| 2026-05-04 13:34 | 49.92288 | 8.70900 | 4339 ft | 273 kts | 138° |
| 2026-05-04 13:34 | 49.90811 | 8.72759 | 5001 ft | 275 kts | 146° |
| 2026-05-04 13:35 | 49.89258 | 8.74510 | 5731 ft | 277 kts | 144° |
| 2026-05-04 13:35 | 49.86951 | 8.79320 | 7150 ft | 282 kts | 121° |
| 2026-05-04 13:35 | 49.86015 | 8.81998 | 7863 ft | 283 kts | 121° |
| 2026-05-04 13:36 | 49.85074 | 8.84675 | 8638 ft | 282 kts | 122° |
| 2026-05-04 13:36 | 49.84128 | 8.87324 | 9396 ft | 281 kts | 122° |
| 2026-05-04 13:36 | 49.83176 | 8.89971 | 10098 ft | 282 kts | 123° |
| 2026-05-04 13:36 | 49.82197 | 8.92680 | 10463 ft | 295 kts | 123° |
| 2026-05-04 13:37 | 49.81164 | 8.95520 | 10706 ft | 311 kts | 123° |
| 2026-05-04 13:37 | 49.80067 | 8.98513 | 10935 ft | 327 kts | 123° |
| 2026-05-04 13:37 | 49.78920 | 9.01646 | 11175 ft | 342 kts | 122° |
| 2026-05-04 13:37 | 49.77721 | 9.04909 | 11484 ft | 354 kts | 122° |
| 2026-05-04 13:38 | 49.76519 | 9.08263 | 11982 ft | 359 kts | 118° |
| 2026-05-04 13:38 | 49.75640 | 9.11905 | 12522 ft | 365 kts | 108° |
| 2026-05-04 13:38 | 49.75021 | 9.15741 | 12914 ft | 370 kts | 105° |
| 2026-05-04 13:38 | 49.74437 | 9.19620 | 13022 ft | 370 kts | 105° |
| 2026-05-04 13:39 | 49.73850 | 9.23499 | 13016 ft | 371 kts | 105° |
| 2026-05-04 13:39 | 49.73253 | 9.27371 | 13161 ft | 372 kts | 106° |
| 2026-05-04 13:39 | 49.72632 | 9.31266 | 13692 ft | 374 kts | 106° |
| 2026-05-04 13:39 | 49.71999 | 9.35185 | 14182 ft | 377 kts | 106° |
| 2026-05-04 13:40 | 49.71359 | 9.39130 | 14664 ft | 380 kts | 106° |
| 2026-05-04 13:40 | 49.70710 | 9.43098 | 15135 ft | 383 kts | 107° |
| 2026-05-04 13:40 | 49.70052 | 9.47115 | 15606 ft | 387 kts | 107° |
| 2026-05-04 13:40 | 49.69384 | 9.51159 | 16081 ft | 390 kts | 107° |
| 2026-05-04 13:41 | 49.68708 | 9.55231 | 16554 ft | 393 kts | 107° |
| 2026-05-04 13:41 | 49.68031 | 9.59331 | 17007 ft | 396 kts | 107° |
| 2026-05-04 13:41 | 49.67391 | 9.63486 | 17450 ft | 401 kts | 103° |
| 2026-05-04 13:42 | 49.67695 | 9.72160 | 18292 ft | 415 kts | 77° |
| 2026-05-04 13:42 | 49.68469 | 9.76471 | 18660 ft | 418 kts | 76° |
| 2026-05-04 13:42 | 49.69251 | 9.80808 | 19009 ft | 421 kts | 76° |
| 2026-05-04 13:42 | 49.70031 | 9.85180 | 19347 ft | 422 kts | 77° |
| 2026-05-04 13:43 | 49.70818 | 9.89556 | 19617 ft | 424 kts | 76° |
| 2026-05-04 13:43 | 49.71736 | 9.93911 | 19877 ft | 429 kts | 69° |
| 2026-05-04 13:43 | 49.73163 | 9.97978 | 20105 ft | 434 kts | 58° |
| 2026-05-04 13:43 | 49.74902 | 10.01803 | 20373 ft | 437 kts | 55° |
| 2026-05-04 13:44 | 49.76700 | 10.05593 | 20650 ft | 438 kts | 54° |
| 2026-05-04 13:44 | 49.78506 | 10.09401 | 20909 ft | 439 kts | 55° |
| 2026-05-04 13:44 | 49.80281 | 10.13171 | 21145 ft | 440 kts | 55° |
| 2026-05-04 13:44 | 49.82098 | 10.17083 | 21362 ft | 442 kts | 55° |
| 2026-05-04 13:45 | 49.83860 | 10.20903 | 21541 ft | 443 kts | 56° |
| 2026-05-04 13:45 | 49.85652 | 10.24797 | 21704 ft | 445 kts | 55° |
| 2026-05-04 13:45 | 49.87444 | 10.28707 | 21861 ft | 445 kts | 56° |
| 2026-05-04 13:45 | 49.89238 | 10.32623 | 21969 ft | 446 kts | 56° |
| 2026-05-04 13:46 | 49.91035 | 10.36552 | 22052 ft | 447 kts | 56° |
| 2026-05-04 13:46 | 49.92831 | 10.40493 | 22107 ft | 448 kts | 56° |
| 2026-05-04 13:46 | 49.94632 | 10.44440 | 22158 ft | 448 kts | 56° |
| 2026-05-04 13:46 | 49.96430 | 10.48386 | 22218 ft | 448 kts | 56° |
| 2026-05-04 13:47 | 49.98227 | 10.52337 | 22231 ft | 448 kts | 56° |
| 2026-05-04 13:47 | 50.00022 | 10.56290 | 22236 ft | 447 kts | 55° |
| 2026-05-04 13:47 | 50.01812 | 10.60236 | 22210 ft | 447 kts | 55° |
| 2026-05-04 13:47 | 50.03585 | 10.64206 | 22168 ft | 447 kts | 57° |
| 2026-05-04 13:48 | 50.05030 | 10.68466 | 22106 ft | 445 kts | 69° |
| 2026-05-04 13:48 | 50.05870 | 10.73076 | 22045 ft | 442 kts | 82° |
| 2026-05-04 13:48 | 50.06041 | 10.77817 | 21979 ft | 437 kts | 96° |
| 2026-05-04 13:48 | 50.05554 | 10.82441 | 21913 ft | 430 kts | 108° |
| 2026-05-04 13:49 | 50.04636 | 10.86851 | 21857 ft | 427 kts | 112° |
| 2026-05-04 13:49 | 50.03663 | 10.91198 | 21839 ft | 424 kts | 112° |
| 2026-05-04 13:49 | 50.02714 | 10.95502 | 22025 ft | 417 kts | 111° |
| 2026-05-04 13:49 | 50.01803 | 10.99720 | 22253 ft | 408 kts | 111° |
| 2026-05-04 13:50 | 50.00917 | 11.03868 | 22494 ft | 400 kts | 111° |
| 2026-05-04 13:50 | 50.00053 | 11.07932 | 22733 ft | 392 kts | 111° |
| 2026-05-04 13:50 | 49.99204 | 11.11908 | 22958 ft | 384 kts | 111° |
| 2026-05-04 13:50 | 49.98371 | 11.15815 | 23191 ft | 377 kts | 111° |
| 2026-05-04 13:51 | 49.97552 | 11.19643 | 23427 ft | 370 kts | 111° |
| 2026-05-04 13:51 | 49.96748 | 11.23408 | 23585 ft | 366 kts | 111° |
| 2026-05-04 13:51 | 49.95954 | 11.27146 | 23611 ft | 364 kts | 110° |
| 2026-05-04 13:51 | 49.95173 | 11.30887 | 23617 ft | 364 kts | 110° |
| 2026-05-04 13:52 | 49.93607 | 11.38341 | 23609 ft | 363 kts | 111° |
| 2026-05-04 13:52 | 49.92852 | 11.42075 | 23603 ft | 363 kts | 109° |
| 2026-05-04 13:52 | 49.92161 | 11.45843 | 23588 ft | 363 kts | 108° |
| 2026-05-04 13:53 | 49.91474 | 11.49605 | 23584 ft | 362 kts | 108° |
| 2026-05-04 13:53 | 49.90785 | 11.53362 | 23585 ft | 362 kts | 108° |
| 2026-05-04 13:53 | 49.90092 | 11.57117 | 23588 ft | 362 kts | 108° |
| 2026-05-04 13:54 | 49.88713 | 11.64617 | 23597 ft | 363 kts | 108° |
| 2026-05-04 13:54 | 49.88088 | 11.68477 | 23681 ft | 375 kts | 102° |
| 2026-05-04 13:54 | 49.87341 | 11.76621 | 23901 ft | 393 kts | 99° |
| 2026-05-04 13:55 | 49.86979 | 11.80859 | 24018 ft | 400 kts | 99° |
| 2026-05-04 13:55 | 49.86209 | 11.89558 | 24237 ft | 415 kts | 99° |
| 2026-05-04 13:55 | 49.85815 | 11.94028 | 24349 ft | 422 kts | 100° |
| 2026-05-04 13:56 | 49.85405 | 11.98582 | 24461 ft | 431 kts | 100° |
| 2026-05-04 13:56 | 49.84989 | 12.03221 | 24568 ft | 438 kts | 100° |
| 2026-05-04 13:56 | 49.84129 | 12.12707 | 24787 ft | 451 kts | 100° |
| 2026-05-04 13:57 | 49.83685 | 12.17554 | 24948 ft | 456 kts | 100° |
| 2026-05-04 13:57 | 49.83244 | 12.22419 | 25136 ft | 458 kts | 99° |
| 2026-05-04 13:58 | 49.81887 | 12.37172 | 25950 ft | 459 kts | 101° |
| 2026-05-04 13:58 | 49.80474 | 12.46779 | 26311 ft | 459 kts | 116° |
| 2026-05-04 13:58 | 49.78922 | 12.51077 | 26528 ft | 457 kts | 126° |
| 2026-05-04 13:59 | 49.77122 | 12.55123 | 26746 ft | 458 kts | 128° |
| 2026-05-04 13:59 | 49.75290 | 12.59157 | 27018 ft | 458 kts | 128° |
| 2026-05-04 13:59 | 49.71645 | 12.67230 | 27651 ft | 458 kts | 128° |
| 2026-05-04 14:00 | 49.69830 | 12.71267 | 27976 ft | 457 kts | 128° |
| 2026-05-04 14:00 | 49.66200 | 12.79365 | 28447 ft | 460 kts | 127° |
| 2026-05-04 14:00 | 49.64379 | 12.83422 | 28727 ft | 460 kts | 127° |
| 2026-05-04 14:01 | 49.62557 | 12.87470 | 29009 ft | 460 kts | 128° |
| 2026-05-04 14:01 | 49.60726 | 12.91520 | 29288 ft | 460 kts | 128° |
| 2026-05-04 14:01 | 49.57067 | 12.99596 | 29877 ft | 460 kts | 128° |
| 2026-05-04 14:02 | 49.55236 | 13.03628 | 30142 ft | 459 kts | 128° |
| 2026-05-04 14:02 | 49.53409 | 13.07662 | 30371 ft | 459 kts | 128° |
| 2026-05-04 14:02 | 49.51580 | 13.11676 | 30619 ft | 457 kts | 128° |
| 2026-05-04 14:02 | 49.49747 | 13.15694 | 30877 ft | 458 kts | 128° |
| 2026-05-04 14:03 | 49.47917 | 13.19713 | 31008 ft | 459 kts | 128° |
| 2026-05-04 14:03 | 49.44254 | 13.27744 | 31005 ft | 459 kts | 128° |
| 2026-05-04 14:04 | 49.38737 | 13.39757 | 30977 ft | 460 kts | 128° |
| 2026-05-04 14:04 | 49.35056 | 13.47744 | 30968 ft | 457 kts | 128° |
| 2026-05-04 14:05 | 49.29581 | 13.59605 | 30970 ft | 455 kts | 128° |
| 2026-05-04 14:06 | 49.25874 | 13.67587 | 30961 ft | 457 kts | 128° |
| 2026-05-04 14:06 | 49.22206 | 13.75457 | 30961 ft | 457 kts | 128° |
| 2026-05-04 14:07 | 49.18516 | 13.83370 | 30960 ft | 456 kts | 128° |
| 2026-05-04 14:07 | 49.14820 | 13.91267 | 30963 ft | 457 kts | 128° |
| 2026-05-04 14:08 | 49.11114 | 13.99168 | 30956 ft | 457 kts | 128° |
| 2026-05-04 14:08 | 49.07409 | 14.07024 | 30969 ft | 456 kts | 128° |
| 2026-05-04 14:09 | 49.01850 | 14.18783 | 30958 ft | 453 kts | 128° |
| 2026-05-04 14:10 | 48.96352 | 14.30381 | 30964 ft | 449 kts | 128° |
| 2026-05-04 14:10 | 48.94514 | 14.34189 | 30711 ft | 443 kts | 129° |
| 2026-05-04 14:10 | 48.92661 | 14.37888 | 30457 ft | 438 kts | 129° |
| 2026-05-04 14:10 | 48.90807 | 14.41568 | 30241 ft | 437 kts | 129° |
| 2026-05-04 14:11 | 48.88965 | 14.45220 | 30037 ft | 435 kts | 129° |
| 2026-05-04 14:11 | 48.85293 | 14.52461 | 29532 ft | 431 kts | 129° |
| 2026-05-04 14:11 | 48.83470 | 14.56070 | 29287 ft | 429 kts | 129° |
| 2026-05-04 14:12 | 48.81655 | 14.59651 | 29020 ft | 428 kts | 129° |
| 2026-05-04 14:12 | 48.79841 | 14.63220 | 28607 ft | 425 kts | 129° |
| 2026-05-04 14:12 | 48.76225 | 14.70323 | 27542 ft | 426 kts | 129° |
| 2026-05-04 14:13 | 48.74407 | 14.73884 | 26982 ft | 427 kts | 129° |
| 2026-05-04 14:13 | 48.72584 | 14.77449 | 26417 ft | 428 kts | 129° |
| 2026-05-04 14:13 | 48.70755 | 14.81020 | 25858 ft | 428 kts | 129° |
| 2026-05-04 14:13 | 48.68961 | 14.84518 | 25312 ft | 425 kts | 129° |
| 2026-05-04 14:14 | 48.67159 | 14.88035 | 24765 ft | 423 kts | 129° |
| 2026-05-04 14:14 | 48.63573 | 14.95010 | 23766 ft | 417 kts | 129° |
| 2026-05-04 14:14 | 48.61802 | 14.98444 | 23254 ft | 413 kts | 129° |
| 2026-05-04 14:15 | 48.58664 | 15.05612 | 22072 ft | 409 kts | 112° |
| 2026-05-04 14:15 | 48.57162 | 15.13843 | 20955 ft | 404 kts | 105° |
| 2026-05-04 14:16 | 48.55801 | 15.22008 | 19859 ft | 398 kts | 105° |
| 2026-05-04 14:16 | 48.55111 | 15.26042 | 19313 ft | 395 kts | 106° |
| 2026-05-04 14:17 | 48.53728 | 15.33986 | 18270 ft | 389 kts | 106° |
| 2026-05-04 14:17 | 48.53047 | 15.37912 | 17717 ft | 385 kts | 107° |
| 2026-05-04 14:17 | 48.51879 | 15.45682 | 16744 ft | 376 kts | 97° |
| 2026-05-04 14:18 | 48.51655 | 15.49575 | 16421 ft | 368 kts | 96° |
| 2026-05-04 14:18 | 48.51258 | 15.57089 | 15910 ft | 356 kts | 96° |
| 2026-05-04 14:19 | 48.50842 | 15.64493 | 15431 ft | 352 kts | 97° |
| 2026-05-04 14:19 | 48.50634 | 15.68132 | 15197 ft | 344 kts | 97° |
| 2026-05-04 14:19 | 48.50429 | 15.71686 | 14949 ft | 337 kts | 97° |
| 2026-05-04 14:19 | 48.50229 | 15.75182 | 14694 ft | 331 kts | 97° |
| 2026-05-04 14:20 | 48.50028 | 15.78602 | 14461 ft | 325 kts | 97° |
| 2026-05-04 14:20 | 48.49830 | 15.81979 | 14216 ft | 323 kts | 97° |
| 2026-05-04 14:20 | 48.49630 | 15.85343 | 13999 ft | 322 kts | 98° |
| 2026-05-04 14:21 | 48.49296 | 15.90928 | 13456 ft | 327 kts | 97° |
| 2026-05-04 14:21 | 48.49083 | 15.94456 | 13184 ft | 343 kts | 97° |
| 2026-05-04 14:21 | 48.48870 | 15.98021 | 12936 ft | 339 kts | 97° |
| 2026-05-04 14:21 | 48.48658 | 16.01550 | 12686 ft | 337 kts | 97° |
| 2026-05-04 14:22 | 48.48430 | 16.05061 | 12435 ft | 336 kts | 100° |
| 2026-05-04 14:22 | 48.47775 | 16.08392 | 12169 ft | 329 kts | 121° |
| 2026-05-04 14:22 | 48.46340 | 16.10998 | 11925 ft | 321 kts | 146° |
| 2026-05-04 14:22 | 48.44406 | 16.12611 | 11690 ft | 317 kts | 159° |
| 2026-05-04 14:23 | 48.40358 | 16.15143 | 11205 ft | 313 kts | 160° |
| 2026-05-04 14:23 | 48.38349 | 16.16418 | 10984 ft | 313 kts | 160° |
| 2026-05-04 14:23 | 48.36358 | 16.17707 | 10740 ft | 309 kts | 160° |
| 2026-05-04 14:24 | 48.34417 | 16.18976 | 10533 ft | 299 kts | 160° |
| 2026-05-04 14:24 | 48.32560 | 16.20274 | 10356 ft | 291 kts | 153° |
| 2026-05-04 14:24 | 48.31060 | 16.22262 | 10153 ft | 290 kts | 128° |
| 2026-05-04 14:24 | 48.30293 | 16.25049 | 9944 ft | 292 kts | 101° |
| 2026-05-04 14:25 | 48.30405 | 16.28052 | 9725 ft | 288 kts | 78° |
| 2026-05-04 14:25 | 48.32105 | 16.33304 | 9307 ft | 286 kts | 42° |
| 2026-05-04 14:25 | 48.33831 | 16.34807 | 9101 ft | 284 kts | 14° |
| 2026-05-04 14:26 | 48.35728 | 16.35021 | 8918 ft | 277 kts | 348° |
| 2026-05-04 14:26 | 48.37580 | 16.34308 | 8735 ft | 272 kts | 339° |
| 2026-05-04 14:26 | 48.39383 | 16.33435 | 8520 ft | 267 kts | 339° |
| 2026-05-04 14:26 | 48.41121 | 16.32608 | 8297 ft | 264 kts | 340° |
| 2026-05-04 14:27 | 48.42878 | 16.31805 | 8079 ft | 264 kts | 340° |
| 2026-05-04 14:27 | 48.44655 | 16.31012 | 7883 ft | 263 kts | 341° |
| 2026-05-04 14:27 | 48.46387 | 16.30269 | 7694 ft | 263 kts | 344° |
| 2026-05-04 14:27 | 48.48210 | 16.30132 | 7483 ft | 267 kts | 11° |
| 2026-05-04 14:28 | 48.49862 | 16.31369 | 7278 ft | 268 kts | 44° |
| 2026-05-04 14:28 | 48.50859 | 16.33687 | 7090 ft | 264 kts | 72° |
| 2026-05-04 14:28 | 48.51318 | 16.36356 | 6901 ft | 262 kts | 83° |
| 2026-05-04 14:28 | 48.51264 | 16.39047 | 6679 ft | 255 kts | 113° |
| 2026-05-04 14:29 | 48.48948 | 16.42486 | 6290 ft | 229 kts | 163° |
| 2026-05-04 14:29 | 48.45943 | 16.43584 | 5990 ft | 214 kts | 168° |
| 2026-05-04 14:30 | 48.44537 | 16.44100 | 5845 ft | 201 kts | 167° |
| 2026-05-04 14:30 | 48.43218 | 16.44615 | 5705 ft | 190 kts | 167° |
| 2026-05-04 14:30 | 48.40705 | 16.45579 | 5345 ft | 187 kts | 166° |
| 2026-05-04 14:31 | 48.39448 | 16.46112 | 5230 ft | 188 kts | 165° |
| 2026-05-04 14:31 | 48.36935 | 16.47185 | 4961 ft | 188 kts | 165° |
| 2026-05-04 14:32 | 48.34462 | 16.48243 | 4924 ft | 184 kts | 165° |
| 2026-05-04 14:32 | 48.33230 | 16.48770 | 4790 ft | 184 kts | 165° |
| 2026-05-04 14:32 | 48.32039 | 16.49280 | 4577 ft | 173 kts | 164° |
| 2026-05-04 14:32 | 48.30890 | 16.49771 | 4361 ft | 171 kts | 164° |
| 2026-05-04 14:33 | 48.29749 | 16.50257 | 4134 ft | 167 kts | 164° |
| 2026-05-04 14:33 | 48.28673 | 16.50717 | 3919 ft | 155 kts | 164° |
| 2026-05-04 14:33 | 48.27672 | 16.51144 | 3706 ft | 143 kts | 166° |
| 2026-05-04 14:33 | 48.26746 | 16.51538 | 3538 ft | 137 kts | 166° |
| 2026-05-04 14:34 | 48.25840 | 16.51924 | 3370 ft | 135 kts | 166° |
| 2026-05-04 14:34 | 48.24945 | 16.52307 | 3193 ft | 133 kts | 165° |
| 2026-05-04 14:34 | 48.24055 | 16.52684 | 3026 ft | 131 kts | 165° |
| 2026-05-04 14:34 | 48.23199 | 16.53047 | 2850 ft | 128 kts | 165° |
| 2026-05-04 14:35 | 48.22338 | 16.53417 | 2688 ft | 128 kts | 165° |
| 2026-05-04 14:35 | 48.21488 | 16.53778 | 2516 ft | 126 kts | 166° |
| 2026-05-04 14:35 | 48.20638 | 16.54139 | 2359 ft | 127 kts | 166° |
| 2026-05-04 14:35 | 48.19797 | 16.54498 | 2191 ft | 125 kts | 166° |
| 2026-05-04 14:36 | 48.18955 | 16.54856 | 2030 ft | 125 kts | 166° |
| 2026-05-04 14:36 | 48.18117 | 16.55214 | 1857 ft | 126 kts | 166° |
| 2026-05-04 14:36 | 48.17288 | 16.55588 | 1664 ft | 125 kts | 164° |
| 2026-05-04 14:36 | 48.16443 | 16.55951 | 1468 ft | 130 kts | 166° |
| 2026-05-04 14:37 | 48.15545 | 16.56295 | 1361 ft | 132 kts | 166° |
| 2026-05-04 14:37 | 48.14668 | 16.56675 | 1186 ft | 133 kts | 164° |
| 2026-05-04 14:37 | 48.13788 | 16.57061 | 979 ft | 129 kts | 165° |
| 2026-05-04 14:37 | 48.12918 | 16.57415 | 812 ft | 128 kts | 164° |
| 2026-05-04 14:38 | 48.12049 | 16.57784 | 663 ft | 131 kts | 163° |
| 2026-05-04 14:38 | 48.11209 | 16.58151 | 615 ft | 113 kts | 165° |
| 2026-05-04 14:38 | 48.10622 | 16.58391 | 625 ft | 64 kts | 164° |
| 2026-05-04 14:38 | 48.10357 | 16.58478 | 619 ft | 29 kts | 185° |
| 2026-05-04 14:39 | 48.10175 | 16.58417 | 624 ft | 13 kts | 195° |
| 2026-05-04 14:39 | 48.10100 | 16.58325 | 614 ft | 16 kts | 251° |
| 2026-05-04 14:39 | 48.10135 | 16.58176 | 627 ft | 19 kts | 346° |
| 2026-05-04 14:40 | 48.10425 | 16.58055 | 621 ft | 24 kts | 344° |
| 2026-05-04 14:40 | 48.10593 | 16.57983 | 619 ft | 27 kts | 344° |
| 2026-05-04 14:40 | 48.10780 | 16.57903 | 622 ft | 29 kts | 344° |
| 2026-05-04 14:40 | 48.10957 | 16.57829 | 621 ft | 26 kts | 344° |
| 2026-05-04 14:41 | 48.11142 | 16.57753 | 625 ft | 29 kts | 344° |
| 2026-05-04 14:41 | 48.11341 | 16.57669 | 616 ft | 28 kts | 344° |
| 2026-05-04 14:41 | 48.11535 | 16.57503 | 623 ft | 15 kts | 228° |
| 2026-05-04 14:42 | 48.11481 | 16.57223 | 621 ft | 21 kts | 295° |
| 2026-05-04 14:42 | 48.11546 | 16.57018 | 624 ft | 23 kts | 295° |
| 2026-05-04 14:42 | 48.11617 | 16.56800 | 621 ft | 18 kts | 296° |
| 2026-05-04 14:43 | 48.11642 | 16.56726 | 617 ft | 2 kts | 297° |
| 2026-05-04 14:44 | 48.11642 | 16.56725 | 614 ft | 1 kts | 297° |
| 2026-05-04 14:44 | 48.11667 | 16.56699 | 619 ft | 7 kts | 350° |
| 2026-05-04 14:44 | 48.11709 | 16.56723 | 622 ft | 6 kts | 27° |
| 2026-05-04 14:45 | 48.11726 | 16.56736 | 614 ft | 2 kts | 26° |